createdAt,value
2023-04-28T00:00:17.989Z,7.80
2023-04-28T00:01:17.997Z,7.80
2023-04-28T00:02:18.022Z,7.80
2023-04-28T00:03:18.099Z,7.60
2023-04-28T00:04:18.174Z,7.60
2023-04-28T00:05:18.080Z,7.80
2023-04-28T00:06:17.928Z,7.10
2023-04-28T00:07:17.900Z,7.00
2023-04-28T00:08:17.895Z,8.00
2023-04-28T00:09:17.884Z,7.70
2023-04-28T00:10:17.896Z,8.20
2023-04-28T00:11:17.867Z,8.40
2023-04-28T00:12:17.869Z,7.90
2023-04-28T00:13:17.850Z,8.10
2023-04-28T00:14:17.996Z,7.50
2023-04-28T00:15:17.864Z,8.00
2023-04-28T00:16:17.882Z,7.80
2023-04-28T00:17:17.865Z,7.60
2023-04-28T00:18:17.866Z,7.70
2023-04-28T00:19:17.777Z,7.90
2023-04-28T00:20:17.790Z,8.40
2023-04-28T00:21:17.790Z,7.90
2023-04-28T00:22:17.751Z,7.90
2023-04-28T00:23:17.728Z,8.20
2023-04-28T00:24:17.884Z,8.90
2023-04-28T00:25:17.735Z,8.50
2023-04-28T00:26:17.698Z,7.80
2023-04-28T00:27:17.688Z,8.10
2023-04-28T00:28:27.074Z,8.00
2023-04-28T00:29:18.690Z,8.90
2023-04-28T00:30:17.699Z,8.60
2023-04-28T00:31:17.702Z,9.00
2023-04-28T00:32:17.687Z,8.10
2023-04-28T00:33:17.641Z,8.90
2023-04-28T00:34:17.941Z,9.00
2023-04-28T00:35:17.610Z,8.40
2023-04-28T00:36:17.620Z,8.30
2023-04-28T00:37:17.581Z,8.10
2023-04-28T00:38:17.574Z,9.20
2023-04-28T00:39:17.553Z,7.80
2023-04-28T00:40:17.560Z,8.90
2023-04-28T00:41:17.530Z,8.20
2023-04-28T00:42:17.545Z,8.70
2023-04-28T00:43:17.514Z,8.70
2023-04-28T00:44:17.862Z,8.70
2023-04-28T00:45:17.547Z,8.10
2023-04-28T00:46:17.567Z,8.10
2023-04-28T00:47:17.473Z,8.30
2023-04-28T00:48:17.459Z,8.40
2023-04-28T00:49:17.506Z,8.30
2023-04-28T00:50:17.463Z,8.60
2023-04-28T00:51:17.479Z,7.50
2023-04-28T00:52:17.417Z,8.50
2023-04-28T00:53:17.419Z,8.10
2023-04-28T00:54:17.689Z,8.20
2023-04-28T00:55:17.409Z,8.20
2023-04-28T00:56:17.387Z,8.80
2023-04-28T00:57:17.360Z,8.60
2023-04-28T00:58:17.348Z,7.90
2023-04-28T00:59:17.364Z,9.20
2023-04-28T01:00:17.356Z,7.70
2023-04-28T01:01:17.363Z,8.80
2023-04-28T01:02:17.638Z,8.00
2023-04-28T01:03:17.410Z,8.40
2023-04-28T01:04:17.570Z,8.10
2023-04-28T01:05:17.441Z,7.90
2023-04-28T01:06:17.252Z,8.10
2023-04-28T01:07:17.245Z,7.80
2023-04-28T01:08:17.247Z,8.50
2023-04-28T01:09:17.227Z,7.90
2023-04-28T01:10:17.224Z,8.80
2023-04-28T01:11:17.213Z,8.80
2023-04-28T01:12:17.228Z,8.50
2023-04-28T01:13:17.194Z,8.20
2023-04-28T01:14:17.526Z,8.40
2023-04-28T01:15:17.206Z,8.90
2023-04-28T01:16:17.196Z,8.90
2023-04-28T01:17:17.142Z,8.10
2023-04-28T01:18:17.173Z,8.80
2023-04-28T01:19:17.147Z,8.40
2023-04-28T01:20:17.106Z,8.80
2023-04-28T01:21:17.138Z,8.30
2023-04-28T01:22:17.109Z,8.60
2023-04-28T01:23:17.092Z,8.30
2023-04-28T01:24:17.371Z,9.00
2023-04-28T01:25:17.107Z,8.40
2023-04-28T01:26:17.052Z,8.40
2023-04-28T01:27:17.043Z,9.30
2023-04-28T01:28:17.036Z,8.10
2023-04-28T01:29:17.073Z,8.00
2023-04-28T01:30:17.016Z,8.30
2023-04-28T01:31:17.078Z,8.20
2023-04-28T01:32:16.987Z,8.50
2023-04-28T01:33:16.977Z,9.00
2023-04-28T01:34:17.221Z,8.40
2023-04-28T01:35:16.950Z,8.40
2023-04-28T01:36:16.974Z,8.60
2023-04-28T01:37:16.941Z,8.30
2023-04-28T01:38:16.920Z,9.00
2023-04-28T01:39:16.951Z,9.10
2023-04-28T01:40:16.896Z,8.60
2023-04-28T01:41:16.888Z,9.00
2023-04-28T01:42:16.927Z,9.70
2023-04-28T01:43:16.863Z,11.00
2023-04-28T01:44:17.159Z,10.00
2023-04-28T01:45:16.842Z,10.70
2023-04-28T01:46:16.883Z,10.90
2023-04-28T01:47:16.885Z,11.00
2023-04-28T01:48:16.819Z,9.60
2023-04-28T01:49:16.805Z,9.70
2023-04-28T01:50:16.817Z,9.10
2023-04-28T01:51:16.779Z,8.90
2023-04-28T01:52:16.805Z,8.20
2023-04-28T01:53:16.811Z,8.70
2023-04-28T01:54:16.903Z,8.40
2023-04-28T01:55:16.736Z,8.60
2023-04-28T01:56:16.725Z,8.30
2023-04-28T01:57:17.711Z,8.60
2023-04-28T01:58:16.703Z,8.60
2023-04-28T01:59:16.719Z,7.90
2023-04-28T02:00:16.691Z,8.70
2023-04-28T02:01:16.741Z,7.90
2023-04-28T02:02:16.681Z,8.50
2023-04-28T02:03:16.813Z,8.60
2023-04-28T02:04:17.033Z,8.20
2023-04-28T02:05:16.627Z,9.00
2023-04-28T02:06:16.603Z,8.20
2023-04-28T02:07:16.638Z,8.30
2023-04-28T02:08:16.613Z,8.20
2023-04-28T02:09:16.625Z,7.80
2023-04-28T02:10:16.567Z,8.50
2023-04-28T02:11:16.556Z,8.70
2023-04-28T02:12:16.539Z,8.10
2023-04-28T02:13:16.550Z,8.20
2023-04-28T02:14:16.777Z,8.20
2023-04-28T02:15:16.518Z,8.30
2023-04-28T02:16:16.535Z,8.10
2023-04-28T02:17:16.479Z,8.60
2023-04-28T02:18:16.470Z,8.20
2023-04-28T02:19:16.478Z,8.20
2023-04-28T02:20:16.478Z,9.00
2023-04-28T02:21:16.438Z,8.60
2023-04-28T02:22:16.440Z,8.90
2023-04-28T02:23:16.429Z,8.10
2023-04-28T02:24:16.659Z,9.10
2023-04-28T02:25:16.426Z,8.30
2023-04-28T02:26:16.402Z,7.90
2023-04-28T02:27:16.374Z,8.10
2023-04-28T02:28:16.358Z,8.30
2023-04-28T02:29:16.378Z,8.40
2023-04-28T02:30:16.356Z,8.80
2023-04-28T02:31:16.442Z,8.50
2023-04-28T02:32:16.328Z,8.40
2023-04-28T02:33:16.310Z,8.40
2023-04-28T02:34:16.634Z,8.40
2023-04-28T02:35:16.290Z,8.90
2023-04-28T02:36:16.295Z,8.20
2023-04-28T02:37:16.263Z,8.40
2023-04-28T02:38:16.273Z,8.60
2023-04-28T02:39:16.305Z,8.40
2023-04-28T02:40:16.243Z,8.20
2023-04-28T02:41:16.247Z,9.00
2023-04-28T02:42:16.225Z,9.00
2023-04-28T02:43:16.233Z,8.50
2023-04-28T02:44:16.497Z,8.50
2023-04-28T02:45:16.351Z,8.70
2023-04-28T02:46:16.225Z,8.80
2023-04-28T02:47:16.226Z,8.50
2023-04-28T02:49:34.047Z,7.50
2023-04-28T02:50:34.049Z,8.70
2023-04-28T02:51:34.035Z,8.60
2023-04-28T02:52:34.010Z,9.30
2023-04-28T02:53:34.005Z,9.10
2023-04-28T02:54:33.998Z,8.70
2023-04-28T02:55:34.016Z,9.10
2023-04-28T02:56:33.973Z,9.30
2023-04-28T02:57:33.967Z,8.90
2023-04-28T02:58:33.953Z,8.80
2023-04-28T02:59:33.952Z,8.70
2023-04-28T03:00:33.978Z,9.40
2023-04-28T03:01:33.995Z,8.50
2023-04-28T03:02:33.948Z,8.70
2023-04-28T03:03:34.036Z,9.20
2023-04-28T03:04:34.113Z,8.90
2023-04-28T03:05:33.897Z,9.20
2023-04-28T03:06:33.870Z,8.80
2023-04-28T03:07:33.867Z,8.80
2023-04-28T03:08:33.845Z,9.10
2023-04-28T03:09:33.833Z,8.40
2023-04-28T03:10:33.859Z,8.80
2023-04-28T03:11:33.825Z,9.00
2023-04-28T03:12:33.837Z,9.40
2023-04-28T03:13:33.804Z,8.90
2023-04-28T03:14:33.776Z,9.10
2023-04-28T03:15:33.807Z,9.20
2023-04-28T03:16:33.816Z,8.70
2023-04-28T03:17:33.827Z,9.80
2023-04-28T03:18:33.742Z,9.30
2023-04-28T03:19:33.730Z,9.00
2023-04-28T03:20:33.721Z,9.60
2023-04-28T03:21:33.728Z,8.90
2023-04-28T03:22:33.721Z,8.80
2023-04-28T03:23:33.724Z,9.20
2023-04-28T03:24:33.681Z,9.70
2023-04-28T03:25:33.704Z,9.10
2023-04-28T03:26:33.647Z,9.10
2023-04-28T03:27:33.655Z,9.20
2023-04-28T03:28:33.684Z,8.90
2023-04-28T03:29:33.641Z,9.00
2023-04-28T03:30:33.640Z,9.10
2023-04-28T03:31:33.658Z,9.60
2023-04-28T03:32:33.634Z,8.80
2023-04-28T03:33:33.580Z,9.10
2023-04-28T03:34:33.585Z,9.10
2023-04-28T03:35:33.564Z,9.10
2023-04-28T03:36:33.542Z,9.10
2023-04-28T03:37:33.529Z,9.50
2023-04-28T03:38:33.521Z,8.70
2023-04-28T03:39:33.523Z,9.40
2023-04-28T03:40:33.540Z,9.50
2023-04-28T03:41:33.489Z,9.50
2023-04-28T03:42:33.478Z,9.40
2023-04-28T03:43:33.485Z,9.40
2023-04-28T03:44:33.452Z,9.30
2023-04-28T03:45:33.513Z,9.20
2023-04-28T03:46:33.424Z,9.10
2023-04-28T03:47:33.438Z,9.50
2023-04-28T03:48:33.425Z,9.00
2023-04-28T03:49:33.401Z,8.70
2023-04-28T03:50:33.411Z,8.70
2023-04-28T03:51:33.375Z,9.30
2023-04-28T03:52:33.381Z,9.10
2023-04-28T03:53:33.372Z,9.50
2023-04-28T03:54:33.354Z,8.90
2023-04-28T03:55:33.357Z,9.30
2023-04-28T03:56:33.326Z,9.40
2023-04-28T03:57:33.336Z,11.00
2023-04-28T03:58:33.312Z,9.90
2023-04-28T03:59:33.297Z,10.10
2023-04-28T04:00:33.316Z,9.40
2023-04-28T04:01:33.293Z,10.80
2023-04-28T04:02:33.377Z,10.50
2023-04-28T04:03:33.437Z,10.60
2023-04-28T04:04:33.417Z,10.60
2023-04-28T04:05:33.286Z,9.70
2023-04-28T04:06:33.227Z,10.40
2023-04-28T04:07:33.216Z,10.10
2023-04-28T04:08:33.197Z,10.80
2023-04-28T04:09:33.209Z,10.40
2023-04-28T04:10:33.201Z,10.40
2023-04-28T04:11:33.190Z,9.90
2023-04-28T04:12:33.150Z,10.10
2023-04-28T04:13:33.153Z,11.00
2023-04-28T04:14:33.141Z,11.40
2023-04-28T04:15:33.167Z,10.50
2023-04-28T04:16:33.145Z,11.20
2023-04-28T04:17:33.190Z,11.80
2023-04-28T04:18:33.093Z,12.40
2023-04-28T04:19:33.077Z,11.60
2023-04-28T04:20:33.074Z,12.00
2023-04-28T04:21:33.118Z,12.40
2023-04-28T04:22:33.054Z,11.90
2023-04-28T04:23:33.035Z,11.10
2023-04-28T04:24:33.126Z,11.50
2023-04-28T04:25:33.013Z,11.00
2023-04-28T04:26:33.032Z,11.40
2023-04-28T04:27:33.005Z,10.60
2023-04-28T04:28:32.988Z,11.90
2023-04-28T04:29:32.976Z,11.00
2023-04-28T04:30:32.958Z,11.10
2023-04-28T04:31:33.117Z,9.90
2023-04-28T04:32:32.990Z,10.50
2023-04-28T04:33:32.927Z,11.60
2023-04-28T04:34:32.969Z,11.00
2023-04-28T04:35:32.907Z,11.30
2023-04-28T04:36:32.917Z,11.00
2023-04-28T04:37:32.903Z,10.30
2023-04-28T04:38:32.905Z,10.40
2023-04-28T04:39:32.868Z,11.20
2023-04-28T04:40:32.859Z,10.50
2023-04-28T04:41:32.864Z,11.00
2023-04-28T04:42:32.836Z,11.50
2023-04-28T04:43:32.847Z,11.20
2023-04-28T04:44:32.811Z,11.70
2023-04-28T04:45:32.825Z,11.20
2023-04-28T04:46:32.868Z,10.80
2023-04-28T04:47:32.824Z,11.60
2023-04-28T04:48:32.801Z,12.20
2023-04-28T04:49:32.789Z,11.50
2023-04-28T04:50:32.742Z,11.40
2023-04-28T04:51:32.734Z,12.00
2023-04-28T04:52:32.861Z,11.80
2023-04-28T04:53:32.712Z,12.20
2023-04-28T04:54:32.718Z,12.40
2023-04-28T04:55:32.688Z,11.50
2023-04-28T04:56:32.702Z,12.20
2023-04-28T04:57:32.671Z,11.90
2023-04-28T04:58:32.697Z,11.80
2023-04-28T04:59:32.649Z,10.80
2023-04-28T05:00:32.638Z,12.00
2023-04-28T05:01:32.669Z,11.40
2023-04-28T05:02:32.742Z,11.40
2023-04-28T05:03:32.796Z,11.30
2023-04-28T05:04:32.896Z,11.90
2023-04-28T05:05:32.725Z,12.10
2023-04-28T05:06:32.577Z,11.80
2023-04-28T05:07:32.562Z,12.30
2023-04-28T05:08:32.574Z,11.70
2023-04-28T05:09:32.557Z,11.90
2023-04-28T05:10:32.563Z,11.40
2023-04-28T05:11:32.550Z,11.60
2023-04-28T05:12:32.546Z,11.40
2023-04-28T05:13:32.501Z,11.50
2023-04-28T05:14:32.527Z,11.30
2023-04-28T05:15:32.499Z,10.80
2023-04-28T05:16:32.530Z,11.70
2023-04-28T05:17:32.495Z,11.50
2023-04-28T05:18:32.460Z,12.00
2023-04-28T05:19:32.466Z,11.40
2023-04-28T05:20:32.422Z,10.70
2023-04-28T05:21:32.437Z,11.70
2023-04-28T05:22:32.416Z,11.50
2023-04-28T05:23:32.430Z,11.50
2023-04-28T05:24:32.409Z,11.90
2023-04-28T05:25:32.386Z,11.70
2023-04-28T05:26:32.382Z,12.00
2023-04-28T05:27:32.359Z,12.30
2023-04-28T05:28:32.339Z,12.20
2023-04-28T05:29:32.356Z,12.20
2023-04-28T05:30:32.316Z,14.00
2023-04-28T05:31:32.490Z,14.80
2023-04-28T05:32:32.329Z,14.50
2023-04-28T05:33:32.302Z,14.60
2023-04-28T05:34:32.299Z,14.80
2023-04-28T05:35:32.277Z,14.80
2023-04-28T05:36:32.268Z,14.00
2023-04-28T05:37:32.330Z,17.20
2023-04-28T05:38:32.237Z,19.90
2023-04-28T05:39:32.244Z,22.80
2023-04-28T05:40:32.250Z,20.50
2023-04-28T05:41:32.211Z,19.20
2023-04-28T05:42:32.231Z,16.90
2023-04-28T05:43:32.193Z,16.30
2023-04-28T05:44:32.226Z,16.30
2023-04-28T05:45:32.263Z,16.10
2023-04-28T05:46:32.182Z,15.30
2023-04-28T05:47:32.155Z,15.90
2023-04-28T05:48:32.137Z,16.00
2023-04-28T05:49:32.149Z,15.30
2023-04-28T05:50:32.107Z,15.30
2023-04-28T05:51:32.097Z,14.20
2023-04-28T05:52:32.128Z,13.60
2023-04-28T05:53:32.080Z,14.20
2023-04-28T05:54:32.085Z,13.30
2023-04-28T05:55:32.049Z,13.50
2023-04-28T05:56:32.040Z,12.90
2023-04-28T05:57:41.716Z,13.40
2023-04-28T05:58:33.021Z,13.40
2023-04-28T05:59:32.023Z,13.30
2023-04-28T06:00:32.003Z,13.90
2023-04-28T06:01:32.009Z,13.50
2023-04-28T06:02:32.110Z,13.30
2023-04-28T06:03:32.182Z,13.30
2023-04-28T06:04:32.320Z,13.30
2023-04-28T06:05:32.128Z,13.30
2023-04-28T06:06:31.930Z,12.90
2023-04-28T06:07:31.922Z,13.50
2023-04-28T06:08:31.908Z,12.80
2023-04-28T06:09:31.936Z,13.30
2023-04-28T06:10:31.890Z,13.50
2023-04-28T06:11:31.890Z,13.40
2023-04-28T06:12:31.874Z,12.90
2023-04-28T06:13:31.869Z,13.10
2023-04-28T06:14:31.868Z,12.90
2023-04-28T06:15:31.966Z,12.80
2023-04-28T06:16:31.872Z,12.70
2023-04-28T06:17:31.825Z,13.10
2023-04-28T06:18:31.809Z,13.30
2023-04-28T06:19:31.809Z,12.70
2023-04-28T06:20:31.786Z,13.30
2023-04-28T06:21:31.789Z,12.10
2023-04-28T06:22:31.768Z,12.60
2023-04-28T06:23:31.749Z,12.30
2023-04-28T06:24:31.759Z,13.20
2023-04-28T06:25:31.725Z,12.40
2023-04-28T06:26:31.737Z,12.50
2023-04-28T06:27:31.707Z,12.30
2023-04-28T06:28:31.705Z,12.80
2023-04-28T06:29:31.706Z,12.40
2023-04-28T06:30:31.697Z,11.50
2023-04-28T06:31:31.695Z,12.20
2023-04-28T06:32:31.728Z,15.00
2023-04-28T06:33:31.654Z,13.80
2023-04-28T06:34:31.669Z,14.80
2023-04-28T06:35:31.615Z,15.20
2023-04-28T06:36:31.610Z,13.60
2023-04-28T06:37:31.603Z,14.00
2023-04-28T06:38:31.588Z,13.10
2023-04-28T06:39:31.604Z,13.00
2023-04-28T06:40:31.567Z,12.30
2023-04-28T06:41:31.556Z,12.60
2023-04-28T06:42:31.548Z,12.50
2023-04-28T06:43:31.531Z,13.00
2023-04-28T06:44:31.561Z,13.00
2023-04-28T06:45:31.518Z,12.20
2023-04-28T06:46:31.524Z,13.10
2023-04-28T06:47:31.522Z,11.90
2023-04-28T06:48:31.478Z,12.70
2023-04-28T06:49:31.487Z,12.00
2023-04-28T06:50:31.476Z,12.10
2023-04-28T06:51:31.444Z,12.90
2023-04-28T06:52:38.483Z,12.30
2023-04-28T06:53:32.422Z,13.00
2023-04-28T06:54:31.436Z,12.40
2023-04-28T06:55:31.417Z,12.10
2023-04-28T06:56:31.396Z,11.80
2023-04-28T06:57:31.385Z,11.60
2023-04-28T06:58:31.368Z,12.00
2023-04-28T06:59:31.372Z,11.70
2023-04-28T07:00:31.411Z,11.90
2023-04-28T07:01:31.332Z,11.90
2023-04-28T07:02:31.445Z,12.60
2023-04-28T07:03:31.470Z,12.50
2023-04-28T07:04:31.351Z,12.90
2023-04-28T07:05:31.292Z,14.90
2023-04-28T07:06:31.284Z,16.40
2023-04-28T07:07:31.275Z,14.00
2023-04-28T07:08:31.261Z,13.20
2023-04-28T07:09:31.559Z,12.50
2023-04-28T07:10:31.261Z,12.40
2023-04-28T07:11:31.229Z,12.80
2023-04-28T07:12:31.223Z,12.80
2023-04-28T07:13:31.214Z,12.90
2023-04-28T07:14:31.236Z,17.60
2023-04-28T07:15:31.209Z,17.30
2023-04-28T07:16:31.231Z,15.70
2023-04-28T07:17:31.214Z,14.90
2023-04-28T07:18:31.157Z,14.10
2023-04-28T07:19:31.158Z,14.80
2023-04-28T07:20:31.365Z,14.90
2023-04-28T07:21:31.125Z,14.30
2023-04-28T07:22:31.194Z,14.80
2023-04-28T07:23:31.122Z,15.00
2023-04-28T07:24:31.088Z,15.90
2023-04-28T07:25:31.159Z,14.50
2023-04-28T07:26:31.084Z,14.00
2023-04-28T07:27:31.064Z,13.50
2023-04-28T07:28:31.049Z,13.30
2023-04-28T07:29:31.046Z,12.70
2023-04-28T07:30:31.057Z,12.60
2023-04-28T07:31:31.046Z,12.30
2023-04-28T07:32:31.007Z,12.10
2023-04-28T07:33:30.994Z,12.40
2023-04-28T07:34:31.240Z,12.30
2023-04-28T07:35:30.994Z,13.10
2023-04-28T07:36:30.961Z,11.80
2023-04-28T07:37:31.845Z,12.00
2023-04-28T07:38:30.941Z,11.70
2023-04-28T07:39:30.953Z,12.40
2023-04-28T07:40:30.917Z,11.70
2023-04-28T07:41:30.928Z,11.90
2023-04-28T07:42:30.890Z,11.60
2023-04-28T07:43:30.885Z,11.20
2023-04-28T07:44:30.916Z,11.60
2023-04-28T07:45:30.858Z,11.70
2023-04-28T07:46:30.955Z,12.00
2023-04-28T07:47:30.837Z,12.00
2023-04-28T07:48:30.857Z,11.20
2023-04-28T07:49:30.865Z,12.40
2023-04-28T07:50:30.815Z,12.30
2023-04-28T07:51:30.793Z,11.40
2023-04-28T07:52:30.821Z,12.40
2023-04-28T07:53:30.772Z,11.80
2023-04-28T07:54:30.761Z,12.50
2023-04-28T07:55:30.808Z,12.90
2023-04-28T07:56:30.762Z,15.90
2023-04-28T07:57:30.757Z,17.20
2023-04-28T07:58:30.719Z,15.50
2023-04-28T07:59:30.711Z,14.30
2023-04-28T08:00:30.713Z,13.50
2023-04-28T08:01:30.687Z,12.80
2023-04-28T08:02:30.770Z,11.90
2023-04-28T08:03:30.909Z,12.50
2023-04-28T08:04:30.725Z,11.90
2023-04-28T08:05:30.795Z,12.40
2023-04-28T08:06:30.627Z,12.00
2023-04-28T08:07:30.644Z,11.40
2023-04-28T08:08:30.615Z,11.70
2023-04-28T08:09:30.625Z,11.30
2023-04-28T08:10:30.616Z,11.80
2023-04-28T08:11:30.576Z,11.80
2023-04-28T08:12:30.583Z,11.30
2023-04-28T08:13:30.557Z,11.40
2023-04-28T08:14:30.553Z,11.50
2023-04-28T08:15:30.593Z,12.30
2023-04-28T08:16:30.521Z,11.50
2023-04-28T08:17:30.569Z,11.40
2023-04-28T08:18:30.566Z,11.60
2023-04-28T08:19:30.498Z,11.50
2023-04-28T08:20:30.497Z,11.80
2023-04-28T08:21:30.468Z,12.20
2023-04-28T08:22:30.481Z,11.20
2023-04-28T08:23:30.448Z,11.10
2023-04-28T08:24:30.439Z,11.40
2023-04-28T08:25:30.454Z,12.70
2023-04-28T08:26:30.404Z,11.50
2023-04-28T08:27:30.400Z,11.40
2023-04-28T08:28:30.407Z,12.90
2023-04-28T08:29:30.395Z,11.70
2023-04-28T08:30:30.394Z,11.70
2023-04-28T08:31:30.416Z,12.40
2023-04-28T08:32:30.380Z,11.50
2023-04-28T08:33:30.341Z,11.80
2023-04-28T08:34:30.340Z,12.30
2023-04-28T08:35:30.376Z,12.20
2023-04-28T08:36:30.327Z,11.40
2023-04-28T08:37:30.311Z,12.30
2023-04-28T08:38:30.284Z,12.30
2023-04-28T08:39:30.285Z,11.80
2023-04-28T08:40:30.278Z,11.70
2023-04-28T08:41:30.250Z,12.00
2023-04-28T08:42:30.270Z,12.50
2023-04-28T08:43:30.249Z,12.40
2023-04-28T08:44:30.218Z,13.40
2023-04-28T08:45:30.244Z,12.70
2023-04-28T08:46:30.217Z,12.00
2023-04-28T08:47:30.208Z,12.40
2023-04-28T08:48:30.188Z,12.20
2023-04-28T08:49:30.175Z,12.40
2023-04-28T08:50:30.177Z,13.00
2023-04-28T08:51:30.163Z,14.10
2023-04-28T08:52:30.131Z,16.90
2023-04-28T08:53:30.121Z,16.80
2023-04-28T08:54:30.189Z,19.80
2023-04-28T08:55:30.133Z,18.80
2023-04-28T08:56:30.104Z,18.80
2023-04-28T08:57:30.102Z,17.50
2023-04-28T08:58:30.065Z,15.60
2023-04-28T08:59:30.063Z,14.60
2023-04-28T09:00:30.073Z,14.00
2023-04-28T09:01:30.080Z,14.00
2023-04-28T09:02:30.238Z,13.20
2023-04-28T09:03:31.889Z,13.80
2023-04-28T09:04:30.126Z,13.40
2023-04-28T09:05:30.109Z,13.70
2023-04-28T09:06:30.004Z,12.90
2023-04-28T09:07:29.976Z,13.70
2023-04-28T09:08:29.994Z,13.50
2023-04-28T09:09:31.716Z,13.20
2023-04-28T09:10:29.973Z,14.30
2023-04-28T09:11:29.924Z,16.00
2023-04-28T09:12:29.919Z,15.80
2023-04-28T09:13:29.901Z,15.10
2023-04-28T09:14:29.890Z,16.00
2023-04-28T09:15:32.655Z,15.60
2023-04-28T09:16:29.901Z,14.50
2023-04-28T09:17:29.887Z,13.80
2023-04-28T09:18:29.879Z,14.50
2023-04-28T09:19:29.842Z,14.00
2023-04-28T09:20:29.847Z,13.40
2023-04-28T09:21:29.847Z,13.40
2023-04-28T09:22:29.875Z,14.20
2023-04-28T09:23:29.795Z,14.20
2023-04-28T09:24:29.826Z,14.20
2023-04-28T09:25:29.782Z,14.40
2023-04-28T09:26:29.782Z,13.80
2023-04-28T09:27:29.882Z,15.10
2023-04-28T09:28:29.763Z,15.30
2023-04-28T09:29:29.741Z,14.60
2023-04-28T09:30:29.737Z,14.10
2023-04-28T09:31:29.793Z,15.50
2023-04-28T09:32:29.910Z,15.90
2023-04-28T09:33:29.754Z,16.10
2023-04-28T09:34:29.699Z,16.00
2023-04-28T09:35:29.680Z,15.30
2023-04-28T09:36:29.693Z,14.90
2023-04-28T09:37:29.668Z,14.90
2023-04-28T09:38:29.648Z,14.60
2023-04-28T09:39:29.687Z,15.40
2023-04-28T09:40:29.621Z,14.70
2023-04-28T09:41:29.700Z,15.50
2023-04-28T09:42:29.612Z,15.40
2023-04-28T09:43:29.597Z,15.50
2023-04-28T09:44:29.603Z,14.50
2023-04-28T09:45:30.447Z,16.00
2023-04-28T09:46:29.644Z,15.20
2023-04-28T09:47:29.592Z,16.30
2023-04-28T09:48:29.529Z,15.50
2023-04-28T09:49:29.529Z,14.90
2023-04-28T09:50:29.528Z,15.70
2023-04-28T09:51:29.520Z,15.00
2023-04-28T09:52:29.502Z,15.70
2023-04-28T09:53:29.487Z,15.30
2023-04-28T09:54:29.471Z,14.90
2023-04-28T09:55:29.469Z,15.30
2023-04-28T09:56:29.480Z,15.10
2023-04-28T09:57:29.435Z,14.10
2023-04-28T09:58:29.435Z,15.00
2023-04-28T09:59:29.431Z,15.10
2023-04-28T10:00:29.401Z,14.90
2023-04-28T10:01:29.557Z,16.10
2023-04-28T10:03:30.115Z,16.00
2023-04-28T10:04:29.578Z,16.20
2023-04-28T10:05:29.564Z,15.70
2023-04-28T10:06:29.365Z,16.50
2023-04-28T10:07:29.345Z,16.70
2023-04-28T10:08:29.329Z,15.10
2023-04-28T10:09:29.316Z,15.80
2023-04-28T10:10:29.298Z,15.70
2023-04-28T10:11:29.335Z,15.50
2023-04-28T10:12:29.277Z,14.90
2023-04-28T10:13:29.259Z,15.60
2023-04-28T10:14:29.314Z,16.40
2023-04-28T10:15:29.265Z,15.00
2023-04-28T10:16:29.272Z,15.40
2023-04-28T10:17:29.730Z,15.50
2023-04-28T10:18:29.215Z,14.70
2023-04-28T10:19:29.215Z,14.50
2023-04-28T10:20:29.229Z,14.00
2023-04-28T10:21:29.169Z,13.40
2023-04-28T10:22:29.173Z,13.60
2023-04-28T10:23:29.166Z,13.50
2023-04-28T10:24:29.141Z,12.90
2023-04-28T10:25:29.140Z,13.30
2023-04-28T10:26:29.169Z,14.00
2023-04-28T10:27:29.127Z,12.80
2023-04-28T10:28:29.111Z,12.80
2023-04-28T10:29:29.091Z,12.40
2023-04-28T10:30:29.902Z,12.40
2023-04-28T10:31:29.102Z,12.40
2023-04-28T10:32:29.134Z,11.10
2023-04-28T10:33:29.643Z,11.70
2023-04-28T10:34:30.805Z,11.20
2023-04-28T10:35:29.031Z,11.60
2023-04-28T10:36:35.878Z,11.10
2023-04-28T10:37:30.025Z,10.30
2023-04-28T10:38:29.003Z,8.70
2023-04-28T10:39:28.999Z,9.40
2023-04-28T10:40:29.009Z,8.90
2023-04-28T10:41:28.958Z,8.40
2023-04-28T10:42:28.965Z,8.80
2023-04-28T10:43:29.159Z,8.00
2023-04-28T10:44:28.936Z,8.10
2023-04-28T10:45:28.918Z,8.10
2023-04-28T10:46:28.999Z,7.90
2023-04-28T10:47:28.944Z,7.50
2023-04-28T10:48:28.882Z,7.00
2023-04-28T10:49:28.889Z,7.20
2023-04-28T10:50:38.429Z,6.50
2023-04-28T10:51:29.853Z,7.00
2023-04-28T10:52:28.868Z,7.20
2023-04-28T10:53:29.066Z,6.60
2023-04-28T10:54:28.828Z,7.00
2023-04-28T10:55:28.875Z,6.50
2023-04-28T10:56:28.831Z,5.80
2023-04-28T10:57:28.791Z,6.20
2023-04-28T10:58:28.783Z,6.70
2023-04-28T10:59:28.810Z,6.30
2023-04-28T11:00:28.754Z,6.50
2023-04-28T11:01:28.824Z,6.50
2023-04-28T11:02:28.962Z,6.40
2023-04-28T11:03:29.143Z,6.60
2023-04-28T11:04:28.911Z,6.70
2023-04-28T11:05:28.701Z,6.90
2023-04-28T11:06:28.992Z,6.80
2023-04-28T11:07:28.692Z,7.00
2023-04-28T11:08:28.684Z,6.70
2023-04-28T11:09:28.676Z,6.70
2023-04-28T11:10:28.672Z,6.80
2023-04-28T11:11:28.644Z,7.10
2023-04-28T11:12:28.642Z,6.40
2023-04-28T11:13:28.855Z,7.00
2023-04-28T11:14:28.612Z,6.50
2023-04-28T11:15:28.595Z,6.50
2023-04-28T11:16:28.637Z,7.10
2023-04-28T11:17:28.610Z,6.60
2023-04-28T11:18:28.560Z,6.80
2023-04-28T11:19:28.589Z,6.40
2023-04-28T11:20:28.533Z,6.60
2023-04-28T11:21:28.566Z,7.10
2023-04-28T11:22:28.539Z,7.20
2023-04-28T11:23:28.705Z,6.50
2023-04-28T11:24:28.490Z,6.70
2023-04-28T11:25:28.498Z,6.60
2023-04-28T11:26:28.502Z,6.70
2023-04-28T11:27:28.484Z,7.40
2023-04-28T11:28:28.469Z,6.70
2023-04-28T11:29:28.455Z,6.30
2023-04-28T11:30:28.434Z,6.40
2023-04-28T11:31:28.439Z,6.20
2023-04-28T11:32:28.502Z,6.40
2023-04-28T11:33:28.397Z,6.10
2023-04-28T11:34:28.416Z,6.10
2023-04-28T11:35:28.377Z,6.40
2023-04-28T11:36:28.364Z,6.10
2023-04-28T11:37:28.376Z,6.20
2023-04-28T11:38:28.343Z,6.50
2023-04-28T11:39:28.382Z,6.90
2023-04-28T11:40:28.331Z,6.10
2023-04-28T11:41:28.317Z,6.40
2023-04-28T11:42:28.311Z,6.70
2023-04-28T11:43:36.549Z,6.80
2023-04-28T11:44:29.303Z,7.00
2023-04-28T11:45:28.266Z,6.70
2023-04-28T11:46:28.335Z,6.80
2023-04-28T11:47:28.627Z,6.60
2023-04-28T11:48:42.956Z,6.60
2023-04-28T11:49:28.261Z,7.10
2023-04-28T11:50:28.209Z,7.10
2023-04-28T11:51:28.200Z,6.40
2023-04-28T11:52:28.221Z,6.60
2023-04-28T11:53:28.180Z,6.80
2023-04-28T11:54:28.271Z,6.70
2023-04-28T11:55:28.170Z,6.60
2023-04-28T11:56:28.146Z,7.10
2023-04-28T11:57:28.136Z,6.70
2023-04-28T11:58:28.147Z,7.20
2023-04-28T11:59:28.162Z,6.50
2023-04-28T12:00:28.111Z,7.10
2023-04-28T12:01:28.105Z,6.80
2023-04-28T12:02:28.422Z,7.00
2023-04-28T12:03:28.201Z,6.80
2023-04-28T12:04:28.155Z,6.90
2023-04-28T12:05:28.069Z,7.20
2023-04-28T12:06:28.046Z,6.80
2023-04-28T12:07:28.041Z,7.20
2023-04-28T12:08:28.017Z,6.60
2023-04-28T12:09:28.026Z,6.80
2023-04-28T12:10:28.023Z,6.50
2023-04-28T12:11:28.002Z,6.90
2023-04-28T12:12:39.972Z,6.80
2023-04-28T12:13:28.963Z,7.00
2023-04-28T12:14:28.003Z,6.90
2023-04-28T12:15:27.948Z,6.80
2023-04-28T12:16:28.635Z,7.20
2023-04-28T12:17:28.066Z,6.80
2023-04-28T12:18:27.911Z,6.80
2023-04-28T12:19:27.919Z,6.90
2023-04-28T12:20:27.906Z,7.40
2023-04-28T12:21:27.877Z,6.80
2023-04-28T12:22:27.893Z,7.40
2023-04-28T12:23:27.849Z,7.20
2023-04-28T12:24:27.856Z,7.80
2023-04-28T12:25:27.853Z,6.50
2023-04-28T12:26:27.825Z,7.20
2023-04-28T12:27:27.817Z,7.30
2023-04-28T12:28:27.830Z,7.60
2023-04-28T12:29:27.808Z,7.70
2023-04-28T12:30:27.780Z,7.60
2023-04-28T12:31:27.845Z,7.40
2023-04-28T12:32:27.774Z,7.50
2023-04-28T12:33:27.792Z,7.00
2023-04-28T12:34:27.765Z,7.70
2023-04-28T12:35:27.731Z,7.30
2023-04-28T12:36:27.715Z,8.00
2023-04-28T12:37:27.712Z,7.90
2023-04-28T12:38:27.728Z,7.50
2023-04-28T12:39:27.710Z,7.40
2023-04-28T12:40:27.681Z,7.00
2023-04-28T12:41:27.675Z,7.80
2023-04-28T12:42:27.735Z,7.80
2023-04-28T12:43:27.665Z,7.60
2023-04-28T12:44:27.648Z,7.20
2023-04-28T12:45:27.640Z,7.70
2023-04-28T12:46:27.650Z,8.00
2023-04-28T12:47:27.665Z,7.60
2023-04-28T12:48:27.635Z,7.40
2023-04-28T12:49:27.605Z,7.10
2023-04-28T12:50:27.603Z,7.20
2023-04-28T12:51:27.572Z,7.50
2023-04-28T12:52:27.552Z,7.30
2023-04-28T12:53:27.539Z,7.10
2023-04-28T12:54:27.539Z,7.10
2023-04-28T12:55:27.533Z,6.80
2023-04-28T12:56:27.529Z,6.70
2023-04-28T12:57:27.512Z,6.80
2023-04-28T12:58:27.492Z,6.90
2023-04-28T12:59:27.467Z,6.60
2023-04-28T13:00:27.474Z,7.40
2023-04-28T13:01:27.500Z,6.80
2023-04-28T13:02:27.519Z,7.10
2023-04-28T13:03:27.509Z,6.80
2023-04-28T13:04:27.771Z,7.00
2023-04-28T13:05:27.439Z,6.80
2023-04-28T13:06:27.411Z,7.10
2023-04-28T13:07:27.399Z,7.00